Terminal Aerodrome Forecast
Issued by NWS

Home | Current Version | Previous Version | Text Only | Print | Product List | Glossary On
Versions: 1 2 3 4 5 6 7 8 9 10 11 12 13 14 15 16 17 18 19
000
FTUS45 KTFX 200135 AAA
TAFHLN
TAF AMD
KHLN 200135Z 2002/2024 29012G19KT 6SM FU SCT200
      TEMPO 2002/2006 4SM FU BKN030
     FM200900 VRB05KT 6SM FU FEW050 FEW250
     FM201800 30009KT P6SM FEW070 FEW250=

USA.gov is the U.S. government's official web portal to all federal, state and local government web resources and services.